EDDR/SCN METAR and TAF weather

Enter ICAO airport designator
Station Type Date Time Source
EDDR METAR 2021/10/22 19:50 UTC NOAA

EDDR 221950Z 22007KT 9999 FEW019 08/05 Q1023 NOSIG


Station Type Date Time Source
EDDR Decoded METAR 2021/10/22 19:50 UTC NOAA

Saarbruecken / Ensheim, Germany (EDDR) 49-13N 007-07E 320M
Oct 22, 2021 - 03:50 PM EDT / 2021.10.22 1950 UTC
Wind: from the SW (220 degrees) at 8 MPH (7 KT):0
Visibility: greater than 7 mile(s):0
Sky conditions: mostly clear
Temperature: 46 F (8 C)
Dew Point: 41 F (5 C)
Relative Humidity: 81%
Pressure (altimeter): 30.21 in. Hg (1023 hPa)
ob: EDDR 221950Z 22007KT 9999 FEW019 08/05 Q1023 NOSIG
cycle: 20

Station Type Date Time Source
EDDR TAF 2021/10/22 18:27 UTC NOAA

TAF EDDR 221700Z 2218/2318 24008KT 9999 FEW025 BKN040
BECMG 2223/2302 VRB03KT 2500 BR BKN006 PROB40
TEMPO 2302/2308 0700 FG BKN001
BECMG 2308/2311 9999 SCT040
BECMG 2316/2318 06005KT

Example: see airport list